Canyon, Minnesota
Current Conditions -  °F | °C
As of 7:55 AM on Wednesday 26 Nov 2014 (Local Time) from KDLH Reporting Station
Light Snow Light Snow  
Wind Chill:   Ceiling: 4200
Heat Index: 18°   Visibility: 3mi
Dew Point: 13°   Wind: 8mph
Humidity: 81%   Direction: 350°N
Pressure: 30.11"   Gusts: NA
Location:  47.04°N, 92.47°W
Report Text: KDLH 261355Z 35007KT 3SM -SN BKN042 OVC065 M08/M11 A3011 RMK AO2 SLP226 P0000 T10781106
Loading
Personal Weather Stations






























Interactive Weather Map New forecast layout! Learn more

10-Day Weather Forecast

Advertisements
Track Severe Weather on mobile